sensor_id;sensor_type;location;lat;lon;timestamp;P1;durP1;ratioP1;P2;durP2;ratioP2
50745;SDS011;36711;51.972;21.204;2023-03-23T00:02:07;17.10;;;10.50;;
50745;SDS011;36711;51.972;21.204;2023-03-23T00:04:34;17.30;;;10.60;;
50745;SDS011;36711;51.972;21.204;2023-03-23T00:07:02;15.50;;;10.00;;
50745;SDS011;36711;51.972;21.204;2023-03-23T00:09:30;14.80;;;8.60;;
50745;SDS011;36711;51.972;21.204;2023-03-23T00:12:01;16.60;;;9.80;;
50745;SDS011;36711;51.972;21.204;2023-03-23T00:14:32;19.30;;;10.60;;
50745;SDS011;36711;51.972;21.204;2023-03-23T00:17:08;17.80;;;10.10;;
50745;SDS011;36711;51.972;21.204;2023-03-23T00:19:38;18.30;;;10.90;;
50745;SDS011;36711;51.972;21.204;2023-03-23T00:22:13;17.80;;;9.90;;
50745;SDS011;36711;51.972;21.204;2023-03-23T00:24:41;15.70;;;9.60;;
50745;SDS011;36711;51.972;21.204;2023-03-23T00:27:09;17.70;;;10.20;;
50745;SDS011;36711;51.972;21.204;2023-03-23T00:29:39;20.20;;;10.10;;
50745;SDS011;36711;51.972;21.204;2023-03-23T00:32:08;14.40;;;9.30;;
50745;SDS011;36711;51.972;21.204;2023-03-23T00:34:40;16.70;;;9.50;;
50745;SDS011;36711;51.972;21.204;2023-03-23T00:37:10;19.00;;;9.50;;
50745;SDS011;36711;51.972;21.204;2023-03-23T00:39:38;19.80;;;9.90;;
50745;SDS011;36711;51.972;21.204;2023-03-23T00:42:06;18.60;;;10.30;;
50745;SDS011;36711;51.972;21.204;2023-03-23T00:44:33;17.70;;;9.90;;
50745;SDS011;36711;51.972;21.204;2023-03-23T00:47:02;16.00;;;9.60;;
50745;SDS011;36711;51.972;21.204;2023-03-23T00:49:30;17.60;;;9.30;;
50745;SDS011;36711;51.972;21.204;2023-03-23T00:52:02;19.00;;;9.40;;
50745;SDS011;36711;51.972;21.204;2023-03-23T00:54:30;16.50;;;10.00;;
50745;SDS011;36711;51.972;21.204;2023-03-23T00:56:58;22.10;;;9.90;;
50745;SDS011;36711;51.972;21.204;2023-03-23T00:59:25;19.90;;;9.70;;
50745;SDS011;36711;51.972;21.204;2023-03-23T01:01:53;17.80;;;9.50;;
50745;SDS011;36711;51.972;21.204;2023-03-23T01:04:21;16.50;;;9.40;;
50745;SDS011;36711;51.972;21.204;2023-03-23T01:06:50;17.90;;;10.00;;
50745;SDS011;36711;51.972;21.204;2023-03-23T01:09:18;18.70;;;9.10;;
50745;SDS011;36711;51.972;21.204;2023-03-23T01:11:49;19.40;;;9.60;;
50745;SDS011;36711;51.972;21.204;2023-03-23T01:14:18;17.60;;;8.90;;
50745;SDS011;36711;51.972;21.204;2023-03-23T01:16:46;15.90;;;9.00;;
50745;SDS011;36711;51.972;21.204;2023-03-23T01:19:14;18.30;;;8.90;;
50745;SDS011;36711;51.972;21.204;2023-03-23T01:21:43;16.60;;;9.40;;
50745;SDS011;36711;51.972;21.204;2023-03-23T01:24:11;20.80;;;9.40;;
50745;SDS011;36711;51.972;21.204;2023-03-23T01:26:38;19.00;;;9.90;;
50745;SDS011;36711;51.972;21.204;2023-03-23T01:29:06;17.40;;;9.80;;
50745;SDS011;36711;51.972;21.204;2023-03-23T01:31:34;20.00;;;9.10;;
50745;SDS011;36711;51.972;21.204;2023-03-23T01:34:03;20.70;;;9.50;;
50745;SDS011;36711;51.972;21.204;2023-03-23T01:36:31;16.20;;;9.40;;
50745;SDS011;36711;51.972;21.204;2023-03-23T01:39:01;15.00;;;9.20;;
50745;SDS011;36711;51.972;21.204;2023-03-23T01:41:31;17.50;;;9.90;;
50745;SDS011;36711;51.972;21.204;2023-03-23T01:46:29;21.30;;;8.80;;
50745;SDS011;36711;51.972;21.204;2023-03-23T01:48:59;16.80;;;9.40;;
50745;SDS011;36711;51.972;21.204;2023-03-23T01:51:28;17.80;;;9.00;;
50745;SDS011;36711;51.972;21.204;2023-03-23T01:53:59;16.00;;;9.50;;
50745;SDS011;36711;51.972;21.204;2023-03-23T01:56:32;14.90;;;8.30;;
50745;SDS011;36711;51.972;21.204;2023-03-23T01:59:05;14.90;;;8.80;;
50745;SDS011;36711;51.972;21.204;2023-03-23T02:01:33;22.50;;;9.40;;
50745;SDS011;36711;51.972;21.204;2023-03-23T02:04:07;22.00;;;9.00;;
50745;SDS011;36711;51.972;21.204;2023-03-23T02:06:35;17.90;;;9.00;;
50745;SDS011;36711;51.972;21.204;2023-03-23T02:09:03;15.30;;;9.20;;
50745;SDS011;36711;51.972;21.204;2023-03-23T02:11:33;17.30;;;8.40;;
50745;SDS011;36711;51.972;21.204;2023-03-23T02:14:01;18.90;;;9.00;;
50745;SDS011;36711;51.972;21.204;2023-03-23T02:19:05;14.70;;;8.20;;
50745;SDS011;36711;51.972;21.204;2023-03-23T02:32:10;17.80;;;9.00;;
50745;SDS011;36711;51.972;21.204;2023-03-23T02:37:11;16.60;;;8.90;;
50745;SDS011;36711;51.972;21.204;2023-03-23T02:39:42;17.60;;;8.80;;
50745;SDS011;36711;51.972;21.204;2023-03-23T02:42:13;16.80;;;8.90;;
50745;SDS011;36711;51.972;21.204;2023-03-23T02:44:43;18.60;;;9.80;;
50745;SDS011;36711;51.972;21.204;2023-03-23T02:47:14;17.80;;;9.60;;
50745;SDS011;36711;51.972;21.204;2023-03-23T02:49:42;14.60;;;8.30;;
50745;SDS011;36711;51.972;21.204;2023-03-23T02:52:12;17.20;;;8.70;;
50745;SDS011;36711;51.972;21.204;2023-03-23T02:54:43;18.30;;;8.80;;
50745;SDS011;36711;51.972;21.204;2023-03-23T02:57:11;14.40;;;8.10;;
50745;SDS011;36711;51.972;21.204;2023-03-23T02:59:39;15.60;;;9.20;;
50745;SDS011;36711;51.972;21.204;2023-03-23T03:02:12;17.70;;;8.20;;
50745;SDS011;36711;51.972;21.204;2023-03-23T03:04:42;18.10;;;8.80;;
50745;SDS011;36711;51.972;21.204;2023-03-23T03:07:26;16.70;;;8.40;;
50745;SDS011;36711;51.972;21.204;2023-03-23T03:10:01;17.50;;;8.50;;
50745;SDS011;36711;51.972;21.204;2023-03-23T03:12:32;13.90;;;8.00;;
50745;SDS011;36711;51.972;21.204;2023-03-23T03:17:33;18.70;;;8.60;;
50745;SDS011;36711;51.972;21.204;2023-03-23T03:20:04;17.40;;;8.30;;
50745;SDS011;36711;51.972;21.204;2023-03-23T03:22:36;16.10;;;8.70;;
50745;SDS011;36711;51.972;21.204;2023-03-23T03:25:05;17.30;;;8.40;;
50745;SDS011;36711;51.972;21.204;2023-03-23T03:27:33;13.20;;;7.70;;
50745;SDS011;36711;51.972;21.204;2023-03-23T03:30:02;14.00;;;8.10;;
50745;SDS011;36711;51.972;21.204;2023-03-23T03:32:36;15.50;;;8.70;;
50745;SDS011;36711;51.972;21.204;2023-03-23T03:35:06;14.40;;;7.90;;
50745;SDS011;36711;51.972;21.204;2023-03-23T03:37:35;19.00;;;8.80;;
50745;SDS011;36711;51.972;21.204;2023-03-23T03:40:06;14.30;;;8.30;;
50745;SDS011;36711;51.972;21.204;2023-03-23T03:42:39;17.30;;;8.20;;
50745;SDS011;36711;51.972;21.204;2023-03-23T03:45:08;16.40;;;8.40;;
50745;SDS011;36711;51.972;21.204;2023-03-23T03:47:36;13.80;;;8.10;;
50745;SDS011;36711;51.972;21.204;2023-03-23T03:50:04;14.70;;;7.80;;
50745;SDS011;36711;51.972;21.204;2023-03-23T03:52:32;12.90;;;7.50;;
50745;SDS011;36711;51.972;21.204;2023-03-23T03:54:59;13.70;;;7.60;;
50745;SDS011;36711;51.972;21.204;2023-03-23T03:57:27;14.40;;;8.00;;
50745;SDS011;36711;51.972;21.204;2023-03-23T03:59:55;16.50;;;8.00;;
50745;SDS011;36711;51.972;21.204;2023-03-23T04:02:23;14.00;;;8.10;;
50745;SDS011;36711;51.972;21.204;2023-03-23T04:04:51;15.30;;;8.00;;
50745;SDS011;36711;51.972;21.204;2023-03-23T04:07:22;15.60;;;8.60;;
50745;SDS011;36711;51.972;21.204;2023-03-23T04:09:53;15.70;;;7.80;;
50745;SDS011;36711;51.972;21.204;2023-03-23T04:12:22;13.00;;;8.10;;
50745;SDS011;36711;51.972;21.204;2023-03-23T04:14:50;14.40;;;7.90;;
50745;SDS011;36711;51.972;21.204;2023-03-23T04:17:17;15.40;;;8.50;;
50745;SDS011;36711;51.972;21.204;2023-03-23T04:19:47;17.00;;;8.10;;
50745;SDS011;36711;51.972;21.204;2023-03-23T04:22:15;13.50;;;8.20;;
50745;SDS011;36711;51.972;21.204;2023-03-23T04:24:44;18.10;;;8.00;;
50745;SDS011;36711;51.972;21.204;2023-03-23T04:27:11;14.20;;;8.00;;
50745;SDS011;36711;51.972;21.204;2023-03-23T04:29:40;15.10;;;8.10;;
50745;SDS011;36711;51.972;21.204;2023-03-23T04:32:08;13.80;;;7.90;;
50745;SDS011;36711;51.972;21.204;2023-03-23T04:34:36;14.10;;;8.20;;
50745;SDS011;36711;51.972;21.204;2023-03-23T04:37:03;15.30;;;8.40;;
50745;SDS011;36711;51.972;21.204;2023-03-23T04:39:31;15.00;;;8.20;;
50745;SDS011;36711;51.972;21.204;2023-03-23T04:42:00;15.40;;;8.10;;
50745;SDS011;36711;51.972;21.204;2023-03-23T04:44:28;13.50;;;7.50;;
50745;SDS011;36711;51.972;21.204;2023-03-23T04:46:56;14.40;;;8.10;;
50745;SDS011;36711;51.972;21.204;2023-03-23T04:49:24;13.50;;;7.40;;
50745;SDS011;36711;51.972;21.204;2023-03-23T04:51:51;13.30;;;7.70;;
50745;SDS011;36711;51.972;21.204;2023-03-23T04:54:19;14.70;;;7.90;;
50745;SDS011;36711;51.972;21.204;2023-03-23T04:56:47;12.60;;;7.40;;
50745;SDS011;36711;51.972;21.204;2023-03-23T04:59:14;12.50;;;7.10;;
50745;SDS011;36711;51.972;21.204;2023-03-23T05:01:44;14.70;;;7.80;;
50745;SDS011;36711;51.972;21.204;2023-03-23T05:04:14;13.70;;;6.80;;
50745;SDS011;36711;51.972;21.204;2023-03-23T05:06:43;11.40;;;7.00;;
50745;SDS011;36711;51.972;21.204;2023-03-23T05:09:12;15.50;;;7.10;;
50745;SDS011;36711;51.972;21.204;2023-03-23T05:11:40;17.00;;;7.20;;
50745;SDS011;36711;51.972;21.204;2023-03-23T05:14:08;12.60;;;7.50;;
50745;SDS011;36711;51.972;21.204;2023-03-23T05:16:35;10.90;;;6.70;;
50745;SDS011;36711;51.972;21.204;2023-03-23T05:19:04;14.50;;;7.20;;
50745;SDS011;36711;51.972;21.204;2023-03-23T05:21:32;13.30;;;7.00;;
50745;SDS011;36711;51.972;21.204;2023-03-23T05:24:00;14.00;;;6.80;;
50745;SDS011;36711;51.972;21.204;2023-03-23T05:26:28;12.50;;;7.10;;
50745;SDS011;36711;51.972;21.204;2023-03-23T05:28:56;16.50;;;7.00;;
50745;SDS011;36711;51.972;21.204;2023-03-23T05:31:24;10.50;;;6.60;;
50745;SDS011;36711;51.972;21.204;2023-03-23T05:33:52;12.60;;;6.90;;
50745;SDS011;36711;51.972;21.204;2023-03-23T05:36:20;11.10;;;7.00;;
50745;SDS011;36711;51.972;21.204;2023-03-23T05:38:47;11.90;;;6.90;;
50745;SDS011;36711;51.972;21.204;2023-03-23T05:41:16;12.40;;;6.50;;
50745;SDS011;36711;51.972;21.204;2023-03-23T05:43:44;13.40;;;7.70;;
50745;SDS011;36711;51.972;21.204;2023-03-23T05:46:12;12.30;;;6.50;;
50745;SDS011;36711;51.972;21.204;2023-03-23T05:48:40;9.90;;;6.30;;
50745;SDS011;36711;51.972;21.204;2023-03-23T05:51:07;13.30;;;6.60;;
50745;SDS011;36711;51.972;21.204;2023-03-23T05:53:35;12.90;;;7.00;;
50745;SDS011;36711;51.972;21.204;2023-03-23T05:56:03;10.80;;;6.60;;
50745;SDS011;36711;51.972;21.204;2023-03-23T05:58:31;13.70;;;6.40;;
50745;SDS011;36711;51.972;21.204;2023-03-23T06:01:00;11.70;;;6.90;;
50745;SDS011;36711;51.972;21.204;2023-03-23T06:03:27;10.40;;;6.60;;
50745;SDS011;36711;51.972;21.204;2023-03-23T06:05:55;13.20;;;6.90;;
50745;SDS011;36711;51.972;21.204;2023-03-23T06:08:22;12.50;;;6.80;;
50745;SDS011;36711;51.972;21.204;2023-03-23T06:10:51;12.50;;;7.00;;
50745;SDS011;36711;51.972;21.204;2023-03-23T06:13:19;13.40;;;7.00;;
50745;SDS011;36711;51.972;21.204;2023-03-23T06:15:46;12.40;;;6.70;;
50745;SDS011;36711;51.972;21.204;2023-03-23T06:18:15;12.40;;;6.40;;
50745;SDS011;36711;51.972;21.204;2023-03-23T06:20:43;11.80;;;7.10;;
50745;SDS011;36711;51.972;21.204;2023-03-23T06:23:11;12.00;;;7.60;;
50745;SDS011;36711;51.972;21.204;2023-03-23T06:25:39;10.40;;;6.50;;
50745;SDS011;36711;51.972;21.204;2023-03-23T06:28:06;11.50;;;6.60;;
50745;SDS011;36711;51.972;21.204;2023-03-23T06:30:34;9.90;;;6.20;;
50745;SDS011;36711;51.972;21.204;2023-03-23T06:33:02;17.80;;;7.10;;
50745;SDS011;36711;51.972;21.204;2023-03-23T06:35:32;13.20;;;6.80;;
50745;SDS011;36711;51.972;21.204;2023-03-23T06:38:00;10.40;;;6.10;;
50745;SDS011;36711;51.972;21.204;2023-03-23T06:40:28;11.60;;;7.00;;
50745;SDS011;36711;51.972;21.204;2023-03-23T06:42:57;13.00;;;6.70;;
50745;SDS011;36711;51.972;21.204;2023-03-23T06:45:26;10.90;;;6.20;;
50745;SDS011;36711;51.972;21.204;2023-03-23T06:47:54;13.00;;;7.00;;
50745;SDS011;36711;51.972;21.204;2023-03-23T06:50:21;12.90;;;6.90;;
50745;SDS011;36711;51.972;21.204;2023-03-23T06:52:49;12.00;;;6.40;;
50745;SDS011;36711;51.972;21.204;2023-03-23T06:55:18;16.50;;;6.80;;
50745;SDS011;36711;51.972;21.204;2023-03-23T06:57:46;9.80;;;6.10;;
50745;SDS011;36711;51.972;21.204;2023-03-23T07:00:14;9.50;;;5.40;;
50745;SDS011;36711;51.972;21.204;2023-03-23T07:02:43;11.50;;;6.50;;
50745;SDS011;36711;51.972;21.204;2023-03-23T07:05:11;10.90;;;5.80;;
50745;SDS011;36711;51.972;21.204;2023-03-23T07:07:39;13.10;;;6.10;;
50745;SDS011;36711;51.972;21.204;2023-03-23T07:10:08;10.90;;;6.30;;
50745;SDS011;36711;51.972;21.204;2023-03-23T07:12:37;9.90;;;6.20;;
50745;SDS011;36711;51.972;21.204;2023-03-23T07:15:04;10.40;;;6.10;;
50745;SDS011;36711;51.972;21.204;2023-03-23T07:17:32;10.10;;;5.90;;
50745;SDS011;36711;51.972;21.204;2023-03-23T07:20:00;11.90;;;5.80;;
50745;SDS011;36711;51.972;21.204;2023-03-23T07:22:28;10.60;;;5.80;;
50745;SDS011;36711;51.972;21.204;2023-03-23T07:24:56;8.80;;;4.90;;
50745;SDS011;36711;51.972;21.204;2023-03-23T07:27:23;9.60;;;5.50;;
50745;SDS011;36711;51.972;21.204;2023-03-23T07:29:51;8.90;;;5.30;;
50745;SDS011;36711;51.972;21.204;2023-03-23T07:32:19;11.80;;;5.50;;
50745;SDS011;36711;51.972;21.204;2023-03-23T07:34:47;10.30;;;5.60;;
50745;SDS011;36711;51.972;21.204;2023-03-23T07:37:14;12.80;;;5.10;;
50745;SDS011;36711;51.972;21.204;2023-03-23T07:39:43;8.30;;;4.90;;
50745;SDS011;36711;51.972;21.204;2023-03-23T07:42:10;10.70;;;4.80;;
50745;SDS011;36711;51.972;21.204;2023-03-23T07:44:38;9.30;;;5.40;;
50745;SDS011;36711;51.972;21.204;2023-03-23T07:47:06;11.70;;;4.80;;
50745;SDS011;36711;51.972;21.204;2023-03-23T07:49:34;8.50;;;4.60;;
50745;SDS011;36711;51.972;21.204;2023-03-23T07:52:03;8.80;;;4.80;;
50745;SDS011;36711;51.972;21.204;2023-03-23T07:54:31;7.40;;;4.60;;
50745;SDS011;36711;51.972;21.204;2023-03-23T07:56:58;10.40;;;4.30;;
50745;SDS011;36711;51.972;21.204;2023-03-23T07:59:26;7.90;;;4.90;;
50745;SDS011;36711;51.972;21.204;2023-03-23T08:01:54;7.50;;;4.60;;
50745;SDS011;36711;51.972;21.204;2023-03-23T08:04:21;7.80;;;4.20;;
50745;SDS011;36711;51.972;21.204;2023-03-23T08:06:49;7.70;;;4.00;;
50745;SDS011;36711;51.972;21.204;2023-03-23T08:09:17;6.50;;;4.00;;
50745;SDS011;36711;51.972;21.204;2023-03-23T08:11:44;7.80;;;4.20;;
50745;SDS011;36711;51.972;21.204;2023-03-23T08:14:12;10.00;;;4.20;;
50745;SDS011;36711;51.972;21.204;2023-03-23T08:16:39;5.70;;;4.10;;
50745;SDS011;36711;51.972;21.204;2023-03-23T08:19:08;8.20;;;4.70;;
50745;SDS011;36711;51.972;21.204;2023-03-23T08:21:35;6.90;;;4.10;;
50745;SDS011;36711;51.972;21.204;2023-03-23T08:24:04;6.60;;;4.30;;
50745;SDS011;36711;51.972;21.204;2023-03-23T08:26:32;6.00;;;4.50;;
50745;SDS011;36711;51.972;21.204;2023-03-23T08:29:00;8.20;;;3.80;;
50745;SDS011;36711;51.972;21.204;2023-03-23T08:31:27;6.50;;;4.00;;
50745;SDS011;36711;51.972;21.204;2023-03-23T08:33:55;7.40;;;3.80;;
50745;SDS011;36711;51.972;21.204;2023-03-23T08:36:24;5.50;;;3.90;;
50745;SDS011;36711;51.972;21.204;2023-03-23T08:38:52;6.30;;;3.90;;
50745;SDS011;36711;51.972;21.204;2023-03-23T08:41:20;6.20;;;3.40;;
50745;SDS011;36711;51.972;21.204;2023-03-23T08:43:47;8.20;;;3.40;;
50745;SDS011;36711;51.972;21.204;2023-03-23T08:46:15;6.00;;;3.70;;
50745;SDS011;36711;51.972;21.204;2023-03-23T08:48:44;7.20;;;3.50;;
50745;SDS011;36711;51.972;21.204;2023-03-23T08:51:12;8.40;;;3.70;;
50745;SDS011;36711;51.972;21.204;2023-03-23T08:53:40;6.80;;;3.40;;
50745;SDS011;36711;51.972;21.204;2023-03-23T08:56:09;6.20;;;3.50;;
50745;SDS011;36711;51.972;21.204;2023-03-23T08:58:37;5.50;;;3.10;;
50745;SDS011;36711;51.972;21.204;2023-03-23T09:01:06;7.50;;;3.00;;
50745;SDS011;36711;51.972;21.204;2023-03-23T09:03:34;4.10;;;2.80;;
50745;SDS011;36711;51.972;21.204;2023-03-23T09:06:05;6.20;;;3.20;;
50745;SDS011;36711;51.972;21.204;2023-03-23T09:08:33;4.30;;;2.70;;
50745;SDS011;36711;51.972;21.204;2023-03-23T09:11:03;7.40;;;2.90;;
50745;SDS011;36711;51.972;21.204;2023-03-23T09:13:31;5.40;;;3.40;;
50745;SDS011;36711;51.972;21.204;2023-03-23T09:15:58;7.10;;;2.90;;
50745;SDS011;36711;51.972;21.204;2023-03-23T09:18:26;5.80;;;2.90;;
50745;SDS011;36711;51.972;21.204;2023-03-23T09:20:54;5.10;;;3.70;;
50745;SDS011;36711;51.972;21.204;2023-03-23T09:23:22;7.20;;;4.10;;
50745;SDS011;36711;51.972;21.204;2023-03-23T09:25:50;5.90;;;4.10;;
50745;SDS011;36711;51.972;21.204;2023-03-23T09:28:18;6.20;;;3.90;;
50745;SDS011;36711;51.972;21.204;2023-03-23T09:30:46;6.80;;;3.90;;
50745;SDS011;36711;51.972;21.204;2023-03-23T09:33:15;7.10;;;3.70;;
50745;SDS011;36711;51.972;21.204;2023-03-23T09:35:43;6.00;;;3.90;;
50745;SDS011;36711;51.972;21.204;2023-03-23T09:38:11;7.00;;;3.30;;
50745;SDS011;36711;51.972;21.204;2023-03-23T09:40:47;5.60;;;3.40;;
50745;SDS011;36711;51.972;21.204;2023-03-23T09:46:10;6.00;;;3.50;;
50745;SDS011;36711;51.972;21.204;2023-03-23T09:48:52;6.80;;;3.40;;
50745;SDS011;36711;51.972;21.204;2023-03-23T09:53:50;4.80;;;3.20;;
50745;SDS011;36711;51.972;21.204;2023-03-23T09:56:19;8.00;;;3.60;;
50745;SDS011;36711;51.972;21.204;2023-03-23T09:58:55;6.80;;;3.60;;
50745;SDS011;36711;51.972;21.204;2023-03-23T10:01:35;6.90;;;3.40;;
50745;SDS011;36711;51.972;21.204;2023-03-23T10:04:19;7.20;;;3.20;;
50745;SDS011;36711;51.972;21.204;2023-03-23T10:06:48;5.60;;;3.30;;
50745;SDS011;36711;51.972;21.204;2023-03-23T10:09:17;5.90;;;3.40;;
50745;SDS011;36711;51.972;21.204;2023-03-23T10:16:56;4.40;;;3.20;;
50745;SDS011;36711;51.972;21.204;2023-03-23T10:19:35;6.90;;;3.50;;
50745;SDS011;36711;51.972;21.204;2023-03-23T10:22:08;5.30;;;3.50;;
50745;SDS011;36711;51.972;21.204;2023-03-23T10:24:39;6.60;;;3.20;;
50745;SDS011;36711;51.972;21.204;2023-03-23T10:27:13;5.90;;;3.40;;
50745;SDS011;36711;51.972;21.204;2023-03-23T10:29:45;6.60;;;3.60;;
50745;SDS011;36711;51.972;21.204;2023-03-23T10:32:19;4.40;;;2.80;;
50745;SDS011;36711;51.972;21.204;2023-03-23T10:34:50;6.60;;;2.80;;
50745;SDS011;36711;51.972;21.204;2023-03-23T10:37:21;5.30;;;2.80;;
50745;SDS011;36711;51.972;21.204;2023-03-23T10:39:55;5.90;;;2.80;;
50745;SDS011;36711;51.972;21.204;2023-03-23T10:44:50;5.60;;;2.70;;
50745;SDS011;36711;51.972;21.204;2023-03-23T10:47:18;3.80;;;2.80;;
50745;SDS011;36711;51.972;21.204;2023-03-23T10:49:53;2.60;;;2.20;;
50745;SDS011;36711;51.972;21.204;2023-03-23T10:55:04;3.40;;;2.20;;
50745;SDS011;36711;51.972;21.204;2023-03-23T10:57:33;3.30;;;2.00;;
50745;SDS011;36711;51.972;21.204;2023-03-23T11:00:23;2.90;;;2.10;;
50745;SDS011;36711;51.972;21.204;2023-03-23T11:03:21;3.00;;;2.40;;
50745;SDS011;36711;51.972;21.204;2023-03-23T11:05:52;3.20;;;2.20;;
50745;SDS011;36711;51.972;21.204;2023-03-23T11:08:21;4.60;;;2.20;;
50745;SDS011;36711;51.972;21.204;2023-03-23T11:10:50;2.40;;;2.10;;
50745;SDS011;36711;51.972;21.204;2023-03-23T11:13:22;4.90;;;2.00;;
50745;SDS011;36711;51.972;21.204;2023-03-23T11:15:50;2.50;;;1.70;;
50745;SDS011;36711;51.972;21.204;2023-03-23T11:18:19;2.10;;;1.60;;
50745;SDS011;36711;51.972;21.204;2023-03-23T11:20:57;4.10;;;1.40;;
50745;SDS011;36711;51.972;21.204;2023-03-23T11:23:35;1.70;;;1.50;;
50745;SDS011;36711;51.972;21.204;2023-03-23T11:28:52;2.80;;;1.50;;
50745;SDS011;36711;51.972;21.204;2023-03-23T11:36:15;2.90;;;1.30;;
50745;SDS011;36711;51.972;21.204;2023-03-23T11:38:43;1.30;;;1.20;;
50745;SDS011;36711;51.972;21.204;2023-03-23T11:41:12;2.90;;;1.50;;
50745;SDS011;36711;51.972;21.204;2023-03-23T11:43:40;3.60;;;1.20;;
50745;SDS011;36711;51.972;21.204;2023-03-23T11:46:14;3.00;;;1.50;;
50745;SDS011;36711;51.972;21.204;2023-03-23T11:48:49;2.20;;;1.40;;
50745;SDS011;36711;51.972;21.204;2023-03-23T11:51:36;4.60;;;1.30;;
50745;SDS011;36711;51.972;21.204;2023-03-23T11:54:12;1.50;;;1.10;;
50745;SDS011;36711;51.972;21.204;2023-03-23T11:56:43;5.40;;;1.40;;
50745;SDS011;36711;51.972;21.204;2023-03-23T11:59:17;1.80;;;1.20;;
50745;SDS011;36711;51.972;21.204;2023-03-23T12:04:30;1.50;;;1.00;;
50745;SDS011;36711;51.972;21.204;2023-03-23T12:12:35;1.70;;;1.20;;
50745;SDS011;36711;51.972;21.204;2023-03-23T12:20:39;3.30;;;1.10;;
50745;SDS011;36711;51.972;21.204;2023-03-23T12:26:01;2.20;;;1.20;;
50745;SDS011;36711;51.972;21.204;2023-03-23T12:28:33;2.00;;;1.00;;
50745;SDS011;36711;51.972;21.204;2023-03-23T12:31:15;1.70;;;0.90;;
50745;SDS011;36711;51.972;21.204;2023-03-23T12:36:28;1.10;;;0.90;;
50745;SDS011;36711;51.972;21.204;2023-03-23T12:41:45;2.50;;;1.00;;
50745;SDS011;36711;51.972;21.204;2023-03-23T12:44:15;3.50;;;0.90;;
50745;SDS011;36711;51.972;21.204;2023-03-23T12:51:51;1.40;;;1.00;;
50745;SDS011;36711;51.972;21.204;2023-03-23T12:54:24;1.40;;;1.10;;
50745;SDS011;36711;51.972;21.204;2023-03-23T12:56:54;2.10;;;1.20;;
50745;SDS011;36711;51.972;21.204;2023-03-23T12:59:31;2.60;;;1.30;;
50745;SDS011;36711;51.972;21.204;2023-03-23T13:02:16;1.60;;;1.40;;
50745;SDS011;36711;51.972;21.204;2023-03-23T13:04:49;4.00;;;1.30;;
50745;SDS011;36711;51.972;21.204;2023-03-23T13:07:21;1.80;;;1.60;;
50745;SDS011;36711;51.972;21.204;2023-03-23T13:10:02;1.60;;;1.40;;
50745;SDS011;36711;51.972;21.204;2023-03-23T13:12:32;5.80;;;1.70;;
50745;SDS011;36711;51.972;21.204;2023-03-23T13:17:51;3.70;;;1.60;;
50745;SDS011;36711;51.972;21.204;2023-03-23T13:22:54;4.80;;;1.90;;
50745;SDS011;36711;51.972;21.204;2023-03-23T13:28:21;3.00;;;1.70;;
50745;SDS011;36711;51.972;21.204;2023-03-23T13:30:53;2.40;;;1.80;;
50745;SDS011;36711;51.972;21.204;2023-03-23T13:33:22;2.60;;;1.70;;
50745;SDS011;36711;51.972;21.204;2023-03-23T13:35:50;3.00;;;1.70;;
50745;SDS011;36711;51.972;21.204;2023-03-23T13:38:24;3.30;;;1.80;;
50745;SDS011;36711;51.972;21.204;2023-03-23T13:40:53;2.80;;;1.90;;
50745;SDS011;36711;51.972;21.204;2023-03-23T13:43:25;5.70;;;1.90;;
50745;SDS011;36711;51.972;21.204;2023-03-23T13:45:54;1.90;;;1.60;;
50745;SDS011;36711;51.972;21.204;2023-03-23T13:48:23;2.00;;;1.40;;
50745;SDS011;36711;51.972;21.204;2023-03-23T13:50:56;1.80;;;1.30;;
50745;SDS011;36711;51.972;21.204;2023-03-23T13:53:26;1.50;;;1.40;;
50745;SDS011;36711;51.972;21.204;2023-03-23T13:56:07;4.20;;;1.10;;
50745;SDS011;36711;51.972;21.204;2023-03-23T13:58:43;2.70;;;1.40;;
50745;SDS011;36711;51.972;21.204;2023-03-23T14:01:13;1.10;;;1.00;;
50745;SDS011;36711;51.972;21.204;2023-03-23T14:03:45;3.10;;;1.10;;
50745;SDS011;36711;51.972;21.204;2023-03-23T14:06:22;3.10;;;1.30;;
50745;SDS011;36711;51.972;21.204;2023-03-23T14:08:53;1.70;;;1.20;;
50745;SDS011;36711;51.972;21.204;2023-03-23T14:11:24;2.10;;;1.30;;
50745;SDS011;36711;51.972;21.204;2023-03-23T14:14:07;2.20;;;1.20;;
50745;SDS011;36711;51.972;21.204;2023-03-23T14:19:24;1.70;;;1.30;;
50745;SDS011;36711;51.972;21.204;2023-03-23T14:21:56;1.40;;;1.20;;
50745;SDS011;36711;51.972;21.204;2023-03-23T14:24:25;2.00;;;1.10;;
50745;SDS011;36711;51.972;21.204;2023-03-23T14:27:01;3.30;;;1.20;;
50745;SDS011;36711;51.972;21.204;2023-03-23T14:29:30;2.00;;;1.30;;
50745;SDS011;36711;51.972;21.204;2023-03-23T14:31:58;2.70;;;1.20;;
50745;SDS011;36711;51.972;21.204;2023-03-23T14:34:27;4.20;;;1.60;;
50745;SDS011;36711;51.972;21.204;2023-03-23T14:36:55;2.00;;;1.40;;
50745;SDS011;36711;51.972;21.204;2023-03-23T14:39:25;4.80;;;1.30;;
50745;SDS011;36711;51.972;21.204;2023-03-23T14:41:56;3.20;;;1.20;;
50745;SDS011;36711;51.972;21.204;2023-03-23T14:44:28;3.40;;;1.60;;
50745;SDS011;36711;51.972;21.204;2023-03-23T14:49:28;1.60;;;1.10;;
50745;SDS011;36711;51.972;21.204;2023-03-23T14:51:55;2.10;;;1.50;;
50745;SDS011;36711;51.972;21.204;2023-03-23T14:54:25;5.10;;;1.40;;
50745;SDS011;36711;51.972;21.204;2023-03-23T14:56:53;1.90;;;1.20;;
50745;SDS011;36711;51.972;21.204;2023-03-23T14:59:21;1.40;;;1.30;;
50745;SDS011;36711;51.972;21.204;2023-03-23T15:01:50;1.80;;;1.40;;
50745;SDS011;36711;51.972;21.204;2023-03-23T15:04:23;2.00;;;1.50;;
50745;SDS011;36711;51.972;21.204;2023-03-23T15:09:20;3.40;;;1.20;;
50745;SDS011;36711;51.972;21.204;2023-03-23T15:11:56;1.60;;;1.10;;
50745;SDS011;36711;51.972;21.204;2023-03-23T15:14:28;3.90;;;1.20;;
50745;SDS011;36711;51.972;21.204;2023-03-23T15:16:57;1.70;;;1.20;;
50745;SDS011;36711;51.972;21.204;2023-03-23T15:21:55;4.70;;;1.20;;
50745;SDS011;36711;51.972;21.204;2023-03-23T15:24:39;5.10;;;1.20;;
50745;SDS011;36711;51.972;21.204;2023-03-23T15:27:17;3.60;;;1.30;;
50745;SDS011;36711;51.972;21.204;2023-03-23T15:29:51;3.20;;;1.50;;
50745;SDS011;36711;51.972;21.204;2023-03-23T15:32:20;2.90;;;1.50;;
50745;SDS011;36711;51.972;21.204;2023-03-23T15:34:48;2.50;;;1.50;;
50745;SDS011;36711;51.972;21.204;2023-03-23T15:37:18;3.00;;;1.50;;
50745;SDS011;36711;51.972;21.204;2023-03-23T15:39:46;2.40;;;1.60;;
50745;SDS011;36711;51.972;21.204;2023-03-23T15:42:28;2.50;;;1.40;;
50745;SDS011;36711;51.972;21.204;2023-03-23T15:44:57;3.70;;;1.40;;
50745;SDS011;36711;51.972;21.204;2023-03-23T15:47:34;1.80;;;1.30;;
50745;SDS011;36711;51.972;21.204;2023-03-23T15:50:04;2.00;;;1.50;;
50745;SDS011;36711;51.972;21.204;2023-03-23T15:52:35;2.60;;;1.40;;
50745;SDS011;36711;51.972;21.204;2023-03-23T15:55:02;3.90;;;1.50;;
50745;SDS011;36711;51.972;21.204;2023-03-23T15:57:30;4.40;;;1.50;;
50745;SDS011;36711;51.972;21.204;2023-03-23T15:59:58;4.20;;;1.30;;
50745;SDS011;36711;51.972;21.204;2023-03-23T16:02:27;3.60;;;1.80;;
50745;SDS011;36711;51.972;21.204;2023-03-23T16:04:57;2.00;;;1.40;;
50745;SDS011;36711;51.972;21.204;2023-03-23T16:07:25;5.80;;;1.60;;
50745;SDS011;36711;51.972;21.204;2023-03-23T16:09:54;3.90;;;1.40;;
50745;SDS011;36711;51.972;21.204;2023-03-23T16:12:23;1.50;;;1.30;;
50745;SDS011;36711;51.972;21.204;2023-03-23T16:14:51;2.50;;;1.60;;